createdAt,value
2018-05-01T00:00:38.282Z,45.60
2018-05-01T00:03:05.676Z,45.58
2018-05-01T00:05:32.087Z,45.88
2018-05-01T00:07:58.441Z,46.07
2018-05-01T00:10:24.879Z,46.19
2018-05-01T00:12:51.262Z,46.50
2018-05-01T00:15:17.678Z,46.21
2018-05-01T00:17:44.891Z,46.67
2018-05-01T00:20:11.398Z,46.52
2018-05-01T00:22:37.795Z,47.38
2018-05-01T00:25:04.988Z,47.11
2018-05-01T00:27:31.378Z,46.94
2018-05-01T00:29:58.562Z,47.24
2018-05-01T00:32:25.040Z,46.92
2018-05-01T00:34:52.195Z,46.79
2018-05-01T00:37:19.348Z,47.15
2018-05-01T00:39:46.578Z,47.23
2018-05-01T00:42:13.773Z,47.32
2018-05-01T00:44:40.254Z,47.79
2018-05-01T00:47:07.416Z,48.34
2018-05-01T00:49:34.078Z,48.03
2018-05-01T00:52:01.237Z,48.39
2018-05-01T00:54:28.493Z,48.24
2018-05-01T00:56:55.613Z,48.74
2018-05-01T00:59:23.474Z,48.81
2018-05-01T01:01:49.866Z,48.90
2018-05-01T01:04:16.601Z,49.14
2018-05-01T01:06:43.078Z,49.19
2018-05-01T01:09:09.669Z,49.45
2018-05-01T01:11:36.115Z,49.83
2018-05-01T01:14:02.513Z,50.08
2018-05-01T01:16:28.903Z,50.12
2018-05-01T01:18:56.137Z,50.01
2018-05-01T01:21:22.666Z,50.44
2018-05-01T01:23:49.147Z,50.53
2018-05-01T01:26:16.249Z,50.36
2018-05-01T01:28:42.731Z,50.29
2018-05-01T01:31:09.906Z,50.25
2018-05-01T01:33:36.289Z,50.38
2018-05-01T01:36:02.671Z,50.82
2018-05-01T01:38:28.804Z,51.10
2018-05-01T01:40:54.957Z,51.42
2018-05-01T01:43:21.073Z,52.15
2018-05-01T01:45:47.194Z,53.77
2018-05-01T01:48:13.352Z,55.00
2018-05-01T01:50:39.719Z,56.45
2018-05-01T01:53:06.625Z,56.68
2018-05-01T01:55:32.727Z,57.31
2018-05-01T01:57:58.926Z,57.52
2018-05-01T02:00:25.048Z,57.73
2018-05-01T02:02:51.162Z,58.45
2018-05-01T02:05:17.606Z,58.34
2018-05-01T02:07:43.689Z,58.29
2018-05-01T02:10:10.569Z,58.58
2018-05-01T02:12:37.449Z,58.90
2018-05-01T02:15:03.569Z,58.95
2018-05-01T02:17:29.799Z,59.78
2018-05-01T02:19:55.938Z,60.50
2018-05-01T02:22:22.125Z,60.51
2018-05-01T02:24:49.005Z,61.00
2018-05-01T02:27:15.265Z,60.94
2018-05-01T02:29:42.443Z,61.15
2018-05-01T02:32:09.304Z,61.38
2018-05-01T02:34:35.651Z,61.71
2018-05-01T02:37:01.848Z,62.27
2018-05-01T02:39:27.991Z,62.68
2018-05-01T02:41:54.093Z,62.96
2018-05-01T02:44:20.220Z,63.15
2018-05-01T02:46:47.084Z,63.15
2018-05-01T02:49:13.192Z,63.18
2018-05-01T02:51:39.313Z,62.78
2018-05-01T02:54:06.258Z,62.96
2018-05-01T02:56:33.181Z,62.91
2018-05-01T02:58:59.456Z,62.84
2018-05-01T03:01:25.745Z,63.09
2018-05-01T03:03:51.841Z,63.40
2018-05-01T03:06:17.991Z,63.14
2018-05-01T03:08:45.820Z,63.21
2018-05-01T03:11:12.216Z,62.91
2018-05-01T03:13:38.428Z,62.29
2018-05-01T03:16:05.610Z,63.12
2018-05-01T03:18:32.584Z,63.13
2018-05-01T03:20:58.744Z,63.26
2018-05-01T03:23:25.851Z,63.19
2018-05-01T03:25:52.018Z,63.17
2018-05-01T03:28:19.051Z,63.36
2018-05-01T03:30:45.227Z,63.77
2018-05-01T03:33:11.361Z,62.81
2018-05-01T03:35:37.551Z,62.57
2018-05-01T03:38:04.474Z,61.68
2018-05-01T03:40:30.615Z,61.84
2018-05-01T03:42:57.500Z,61.52
2018-05-01T03:45:23.630Z,61.88
2018-05-01T03:47:49.788Z,61.64
2018-05-01T03:50:15.990Z,61.26
2018-05-01T03:52:42.162Z,60.84
2018-05-01T03:55:09.048Z,60.11
2018-05-01T03:57:35.243Z,60.16
2018-05-01T04:00:01.494Z,60.77
2018-05-01T04:02:27.632Z,60.53
2018-05-01T04:04:53.867Z,60.51
2018-05-01T04:07:20.047Z,60.67
2018-05-01T04:09:47.125Z,60.83
2018-05-01T04:12:13.368Z,61.05
2018-05-01T04:14:39.563Z,61.31
2018-05-01T04:17:05.801Z,60.46
2018-05-01T04:19:31.917Z,60.50
2018-05-01T04:21:58.119Z,60.81
2018-05-01T04:24:24.289Z,61.05
2018-05-01T04:26:50.509Z,60.55
2018-05-01T04:29:16.753Z,60.50
2018-05-01T04:31:43.086Z,60.99
2018-05-01T04:34:09.347Z,60.89
2018-05-01T04:36:35.495Z,60.65
2018-05-01T04:39:02.121Z,61.20
2018-05-01T04:41:28.270Z,61.40
2018-05-01T04:43:54.545Z,61.72
2018-05-01T04:46:20.720Z,62.44
2018-05-01T04:48:47.601Z,61.80
2018-05-01T04:51:13.801Z,62.04
2018-05-01T04:53:40.717Z,62.27
2018-05-01T04:56:06.893Z,62.39
2018-05-01T04:58:33.047Z,62.63
2018-05-01T05:00:59.212Z,62.69
2018-05-01T05:03:25.381Z,62.40
2018-05-01T05:05:51.801Z,62.08
2018-05-01T05:08:17.946Z,62.57
2018-05-01T05:10:44.112Z,63.08
2018-05-01T05:13:10.305Z,63.00
2018-05-01T05:15:36.505Z,63.17
2018-05-01T05:18:02.786Z,63.18
2018-05-01T05:20:28.932Z,63.32
2018-05-01T05:22:55.064Z,62.74
2018-05-01T05:25:21.227Z,62.43
2018-05-01T05:27:47.498Z,62.09
2018-05-01T05:30:13.707Z,61.87
2018-05-01T05:32:39.895Z,62.10
2018-05-01T05:35:06.053Z,61.49
2018-05-01T05:37:32.205Z,60.85
2018-05-01T05:39:58.419Z,59.91
2018-05-01T05:42:24.588Z,60.28
2018-05-01T05:44:51.475Z,59.76
2018-05-01T05:47:17.659Z,59.72
2018-05-01T05:49:44.860Z,60.50
2018-05-01T05:52:11.025Z,59.92
2018-05-01T05:54:37.220Z,59.60
2018-05-01T05:57:03.383Z,58.88
2018-05-01T05:59:30.283Z,58.51
2018-05-01T06:01:56.448Z,58.05
2018-05-01T06:04:22.648Z,57.29
2018-05-01T06:06:48.815Z,57.56
2018-05-01T06:09:15.722Z,57.55
2018-05-01T06:11:41.876Z,58.17
2018-05-01T06:14:08.932Z,58.39
2018-05-01T06:16:35.961Z,57.69
2018-05-01T06:19:02.440Z,57.90
2018-05-01T06:21:28.589Z,57.80
2018-05-01T06:23:54.774Z,57.77
2018-05-01T06:26:21.723Z,58.07
2018-05-01T06:28:48.683Z,57.96
2018-05-01T06:31:14.961Z,57.79
2018-05-01T06:33:41.768Z,57.86
2018-05-01T06:36:07.996Z,57.53
2018-05-01T06:38:34.178Z,57.85
2018-05-01T06:41:01.083Z,58.10
2018-05-01T06:43:27.247Z,57.76
2018-05-01T06:45:53.464Z,57.11
2018-05-01T06:48:19.905Z,57.20
2018-05-01T06:50:46.795Z,56.94
2018-05-01T06:53:13.004Z,56.32
2018-05-01T06:55:39.144Z,56.62
2018-05-01T06:58:05.299Z,56.52
2018-05-01T07:00:31.436Z,55.81
2018-05-01T07:02:57.570Z,55.75
2018-05-01T07:05:24.510Z,55.36
2018-05-01T07:07:50.635Z,55.16
2018-05-01T07:10:16.957Z,53.87
2018-05-01T07:12:43.063Z,53.90
2018-05-01T07:15:09.349Z,54.12
2018-05-01T07:17:36.239Z,53.99
2018-05-01T07:20:03.410Z,53.74
2018-05-01T07:22:31.844Z,53.19
2018-05-01T07:24:58.163Z,52.68
2018-05-01T07:27:24.355Z,52.30
2018-05-01T07:29:51.283Z,52.52
2018-05-01T07:32:17.421Z,51.34
2018-05-01T07:34:44.342Z,51.25
2018-05-01T07:37:10.764Z,50.31
2018-05-01T07:39:36.931Z,51.39
2018-05-01T07:42:04.875Z,51.21
2018-05-01T07:44:31.373Z,50.52
2018-05-01T07:46:57.591Z,48.78
2018-05-01T07:49:24.858Z,49.10
2018-05-01T07:51:51.001Z,50.09
2018-05-01T07:54:17.207Z,50.57
2018-05-01T07:56:43.514Z,51.36
2018-05-01T07:59:10.419Z,49.97
2018-05-01T08:01:36.812Z,49.66
2018-05-01T08:04:03.570Z,49.02
2018-05-01T08:06:29.843Z,48.58
2018-05-01T08:08:56.036Z,47.78
2018-05-01T08:11:22.266Z,47.11
2018-05-01T08:13:48.417Z,47.58
2018-05-01T08:16:15.661Z,46.77
2018-05-01T08:18:41.846Z,46.58
2018-05-01T08:21:08.842Z,45.56
2018-05-01T08:23:35.000Z,44.89
2018-05-01T08:26:01.865Z,44.74
2018-05-01T08:28:28.040Z,44.90
2018-05-01T08:30:54.179Z,45.62
2018-05-01T08:33:21.111Z,44.54
2018-05-01T08:35:47.349Z,44.12
2018-05-01T08:38:13.557Z,44.49
2018-05-01T08:40:39.725Z,45.30
2018-05-01T08:43:06.620Z,45.68
2018-05-01T08:45:32.959Z,45.50
2018-05-01T08:47:59.994Z,44.43
2018-05-01T08:50:26.269Z,44.91
2018-05-01T08:52:53.168Z,45.37
2018-05-01T08:55:19.384Z,45.50
2018-05-01T08:57:45.518Z,46.07
2018-05-01T09:00:11.692Z,45.56
2018-05-01T09:02:38.598Z,45.87
2018-05-01T09:05:05.341Z,46.39
2018-05-01T09:07:31.551Z,46.16
2018-05-01T09:09:57.784Z,46.85
2018-05-01T09:12:24.000Z,46.67
2018-05-01T09:14:50.141Z,46.88
2018-05-01T09:17:16.341Z,46.88
2018-05-01T09:19:42.493Z,48.38
2018-05-01T09:22:08.700Z,47.38
2018-05-01T09:24:34.955Z,47.31
2018-05-01T09:27:01.088Z,46.53
2018-05-01T09:29:27.931Z,45.92
2018-05-01T09:31:54.357Z,44.42
2018-05-01T09:34:20.728Z,44.69
2018-05-01T09:36:47.625Z,44.60
2018-05-01T09:39:13.791Z,44.82
2018-05-01T09:41:40.800Z,45.07
2018-05-01T09:44:07.086Z,44.35
2018-05-01T09:46:34.016Z,44.49
2018-05-01T09:49:00.920Z,44.71
2018-05-01T09:51:27.107Z,43.94
2018-05-01T09:53:54.310Z,42.89
2018-05-01T09:56:20.858Z,44.62
2018-05-01T09:58:48.475Z,42.96
2018-05-01T10:01:14.980Z,42.29
2018-05-01T10:03:42.582Z,42.36
2018-05-01T10:06:09.076Z,43.03
2018-05-01T10:08:36.440Z,42.85
2018-05-01T10:11:03.612Z,43.66
2018-05-01T10:13:30.073Z,43.21
2018-05-01T10:15:56.494Z,43.14
2018-05-01T10:18:22.953Z,42.46
2018-05-01T10:20:49.519Z,41.44
2018-05-01T10:23:16.945Z,39.79
2018-05-01T10:25:43.610Z,39.93
2018-05-01T10:28:10.716Z,39.40
2018-05-01T10:30:37.469Z,39.00
2018-05-01T10:33:04.707Z,39.08
2018-05-01T10:35:31.231Z,39.38
2018-05-01T10:37:57.675Z,39.82
2018-05-01T10:40:24.342Z,40.00
2018-05-01T10:42:50.814Z,39.78
2018-05-01T10:45:17.856Z,39.42
2018-05-01T10:47:44.335Z,40.38
2018-05-01T10:50:12.224Z,40.16
2018-05-01T10:52:38.636Z,41.53
2018-05-01T10:55:05.367Z,41.07
2018-05-01T10:57:32.034Z,39.85
2018-05-01T10:59:58.539Z,41.12
2018-05-01T11:02:25.157Z,37.63
2018-05-01T11:04:51.627Z,36.96
2018-05-01T11:07:18.814Z,36.35
2018-05-01T11:09:45.285Z,37.50
2018-05-01T11:12:12.519Z,37.15
2018-05-01T11:14:39.083Z,36.72
2018-05-01T11:17:05.581Z,36.92
2018-05-01T11:19:32.040Z,38.73
2018-05-01T11:21:59.476Z,37.23
2018-05-01T11:24:26.264Z,37.58
2018-05-01T11:26:53.491Z,38.09
2018-05-01T11:29:19.942Z,37.26
2018-05-01T11:31:46.641Z,37.49
2018-05-01T11:34:13.443Z,37.53
2018-05-01T11:36:41.686Z,36.62
2018-05-01T11:39:08.244Z,36.79
2018-05-01T11:41:34.919Z,36.04
2018-05-01T11:44:01.384Z,34.40
2018-05-01T11:46:27.910Z,34.60
2018-05-01T11:48:55.000Z,34.95
2018-05-01T11:51:21.411Z,35.58
2018-05-01T11:53:48.440Z,34.45
2018-05-01T11:56:14.903Z,35.32
2018-05-01T11:58:41.343Z,34.71
2018-05-01T12:01:07.917Z,34.87
2018-05-01T12:03:34.395Z,34.02
2018-05-01T12:06:00.831Z,35.00
2018-05-01T12:08:27.291Z,36.15
2018-05-01T12:10:53.769Z,34.61
2018-05-01T12:13:20.252Z,35.02
2018-05-01T12:15:46.691Z,34.25
2018-05-01T12:18:13.375Z,37.25
2018-05-01T12:20:40.144Z,37.34
2018-05-01T12:23:06.593Z,37.36
2018-05-01T12:25:33.011Z,36.31
2018-05-01T12:27:59.538Z,35.69
2018-05-01T12:30:26.013Z,35.93
2018-05-01T12:32:52.715Z,36.67
2018-05-01T12:35:19.103Z,36.55
2018-05-01T12:37:46.279Z,36.44
2018-05-01T12:40:12.838Z,35.81
2018-05-01T12:42:39.309Z,35.75
2018-05-01T12:45:07.741Z,35.75
2018-05-01T12:47:34.243Z,35.42
2018-05-01T12:50:01.909Z,36.84
2018-05-01T12:52:28.490Z,35.85
2018-05-01T12:54:54.906Z,35.92
2018-05-01T12:57:21.296Z,37.02
2018-05-01T12:59:48.528Z,37.61
2018-05-01T13:02:14.954Z,36.15
2018-05-01T13:04:41.583Z,35.96
2018-05-01T13:07:08.255Z,37.43
2018-05-01T13:09:35.443Z,37.69
2018-05-01T13:12:01.854Z,37.71
2018-05-01T13:14:28.353Z,36.80
2018-05-01T13:16:55.539Z,36.12
2018-05-01T13:19:21.976Z,36.25
2018-05-01T13:21:48.510Z,36.82
2018-05-01T13:24:14.948Z,35.65
2018-05-01T13:26:41.391Z,36.02
2018-05-01T13:29:07.910Z,35.71
2018-05-01T13:31:34.378Z,34.82
2018-05-01T13:34:01.041Z,35.96
2018-05-01T13:36:27.457Z,36.48
2018-05-01T13:38:53.932Z,33.44
2018-05-01T13:41:21.121Z,30.70
2018-05-01T13:43:47.598Z,27.86
2018-05-01T13:46:14.790Z,26.73
2018-05-01T13:48:41.219Z,26.00
2018-05-01T13:51:08.447Z,27.33
2018-05-01T13:53:36.513Z,24.34
2018-05-01T13:56:03.286Z,23.19
2018-05-01T13:58:29.701Z,20.86
2018-05-01T14:00:56.148Z,20.82
2018-05-01T14:03:22.688Z,20.46
2018-05-01T14:05:49.193Z,18.49
2018-05-01T14:08:16.404Z,18.34
2018-05-01T14:10:42.820Z,16.50
2018-05-01T14:13:09.288Z,17.89
2018-05-01T14:15:35.732Z,17.41
2018-05-01T14:18:02.231Z,17.53
2018-05-01T14:20:28.663Z,18.21
2018-05-01T14:22:55.084Z,17.48
2018-05-01T14:25:21.714Z,18.15
2018-05-01T14:27:48.308Z,17.23
2018-05-01T14:30:14.814Z,17.26
2018-05-01T14:32:41.419Z,18.51
2018-05-01T14:35:07.904Z,15.55
2018-05-01T14:37:34.967Z,14.56
2018-05-01T14:40:02.193Z,14.95
2018-05-01T14:42:28.606Z,15.07
2018-05-01T14:44:55.034Z,14.15
2018-05-01T14:47:21.459Z,15.97
2018-05-01T14:49:47.910Z,19.44
2018-05-01T14:52:14.480Z,19.10
2018-05-01T14:54:40.978Z,17.84
2018-05-01T14:57:07.420Z,20.41
2018-05-01T14:59:33.857Z,21.15
2018-05-01T15:02:00.494Z,22.47
2018-05-01T15:04:26.972Z,23.65
2018-05-01T15:06:54.336Z,19.33
2018-05-01T15:09:20.864Z,17.97
2018-05-01T15:11:48.005Z,17.13
2018-05-01T15:14:15.160Z,15.66
2018-05-01T15:16:42.468Z,18.37
2018-05-01T15:19:08.939Z,22.32
2018-05-01T15:21:36.169Z,25.39
2018-05-01T15:24:02.681Z,23.26
2018-05-01T15:26:29.247Z,21.46
2018-05-01T15:28:55.700Z,20.48
2018-05-01T15:31:23.276Z,19.27
2018-05-01T15:33:50.536Z,17.76
2018-05-01T15:36:17.004Z,16.63
2018-05-01T15:38:43.501Z,14.85
2018-05-01T15:41:09.927Z,15.50
2018-05-01T15:43:37.117Z,17.18
2018-05-01T15:46:03.712Z,19.03
2018-05-01T15:48:38.815Z,16.63
2018-05-01T15:51:05.595Z,15.32
2018-05-01T15:53:32.008Z,18.13
2018-05-01T15:55:59.239Z,21.48
2018-05-01T15:58:25.659Z,19.62
2018-05-01T16:00:52.255Z,18.00
2018-05-01T16:03:18.955Z,16.11
2018-05-01T16:05:45.342Z,15.93
2018-05-01T16:08:11.781Z,14.92
2018-05-01T16:10:38.309Z,15.59
2018-05-01T16:13:04.854Z,15.26
2018-05-01T16:15:31.412Z,15.02
2018-05-01T16:18:04.959Z,14.15
2018-05-01T16:20:31.353Z,15.58
2018-05-01T16:22:57.960Z,15.02
2018-05-01T16:25:24.411Z,15.04
2018-05-01T16:27:51.373Z,15.75
2018-05-01T16:30:18.868Z,15.39
2018-05-01T16:32:45.449Z,16.30
2018-05-01T16:35:11.865Z,15.21
2018-05-01T16:37:38.255Z,14.99
2018-05-01T16:40:05.428Z,15.90
2018-05-01T16:42:31.969Z,14.84
2018-05-01T16:44:58.359Z,16.05
2018-05-01T16:47:25.531Z,15.32
2018-05-01T16:49:51.973Z,15.40
2018-05-01T16:52:18.536Z,15.66
2018-05-01T16:54:46.063Z,15.68
2018-05-01T16:57:12.505Z,16.84
2018-05-01T16:59:38.932Z,16.88
2018-05-01T17:02:05.482Z,16.26
2018-05-01T17:04:31.940Z,16.18
2018-05-01T17:06:58.442Z,16.67
2018-05-01T17:09:24.856Z,16.51
2018-05-01T17:11:52.131Z,16.45
2018-05-01T17:14:20.120Z,16.60
2018-05-01T17:16:47.405Z,16.78
2018-05-01T17:19:13.940Z,17.18
2018-05-01T17:21:40.450Z,17.02
2018-05-01T17:24:08.102Z,18.15
2018-05-01T17:26:34.570Z,18.47
2018-05-01T17:29:01.091Z,18.67
2018-05-01T17:31:27.615Z,18.73
2018-05-01T17:33:54.066Z,18.60
2018-05-01T17:36:20.540Z,20.86
2018-05-01T17:38:46.967Z,23.72
2018-05-01T17:41:13.428Z,26.08
2018-05-01T17:43:39.943Z,27.41
2018-05-01T17:46:06.476Z,28.33
2018-05-01T17:48:32.911Z,29.26
2018-05-01T17:50:59.336Z,30.65
2018-05-01T17:53:25.875Z,31.25
2018-05-01T17:55:52.384Z,31.10
2018-05-01T17:58:19.666Z,31.38
2018-05-01T18:00:46.148Z,31.90
2018-05-01T18:03:12.606Z,31.96
2018-05-01T18:05:39.815Z,32.68
2018-05-01T18:08:06.244Z,33.11
2018-05-01T18:10:32.968Z,33.23
2018-05-01T18:12:59.531Z,33.42
2018-05-01T18:15:26.015Z,33.67
2018-05-01T18:17:53.165Z,34.59
2018-05-01T18:20:20.366Z,35.26
2018-05-01T18:22:46.764Z,35.68
2018-05-01T18:25:13.232Z,36.06
2018-05-01T18:27:39.797Z,36.47
2018-05-01T18:30:06.250Z,36.76
2018-05-01T18:32:33.649Z,37.09
2018-05-01T18:35:00.499Z,37.40
2018-05-01T18:37:26.952Z,37.62
2018-05-01T18:39:53.871Z,37.69
2018-05-01T18:42:21.136Z,37.95
2018-05-01T18:44:47.780Z,38.22
2018-05-01T18:47:14.493Z,38.18
2018-05-01T18:49:40.944Z,38.47
2018-05-01T18:52:07.762Z,39.01
2018-05-01T18:54:35.125Z,39.41
2018-05-01T18:57:01.580Z,39.85
2018-05-01T18:59:28.354Z,40.03
2018-05-01T19:01:55.538Z,40.31
2018-05-01T19:04:22.510Z,40.72
2018-05-01T19:06:49.156Z,41.39
2018-05-01T19:09:15.668Z,41.60
2018-05-01T19:11:42.223Z,41.22
2018-05-01T19:14:08.915Z,41.81
2018-05-01T19:16:36.451Z,41.91
2018-05-01T19:19:03.941Z,41.70
2018-05-01T19:21:30.814Z,41.66
2018-05-01T19:23:57.742Z,41.88
2018-05-01T19:26:24.462Z,42.34
2018-05-01T19:28:51.137Z,42.09
2018-05-01T19:31:18.480Z,42.81
2018-05-01T19:33:45.486Z,42.70
2018-05-01T19:36:12.861Z,42.13
2018-05-01T19:38:39.425Z,42.62
2018-05-01T19:41:05.875Z,42.69
2018-05-01T19:43:33.125Z,42.92
2018-05-01T19:45:59.942Z,42.52
2018-05-01T19:48:26.428Z,43.12
2018-05-01T19:50:53.837Z,42.39
2018-05-01T19:53:20.353Z,42.83
2018-05-01T19:55:47.036Z,42.39
2018-05-01T19:58:14.325Z,42.97
2018-05-01T20:00:41.313Z,43.48
2018-05-01T20:03:08.903Z,44.08
2018-05-01T20:05:35.277Z,44.46
2018-05-01T20:08:01.734Z,45.06
2018-05-01T20:10:28.177Z,45.49
2018-05-01T20:12:54.723Z,45.04
2018-05-01T20:15:21.281Z,44.95
2018-05-01T20:17:47.770Z,45.18
2018-05-01T20:20:14.323Z,45.43
2018-05-01T20:22:41.113Z,45.66
2018-05-01T20:25:07.527Z,46.02
2018-05-01T20:27:33.933Z,46.03
2018-05-01T20:30:00.677Z,46.27
2018-05-01T20:32:27.290Z,46.48
2018-05-01T20:34:53.796Z,46.38
2018-05-01T20:37:20.193Z,46.33
2018-05-01T20:39:47.824Z,46.70
2018-05-01T20:42:14.295Z,46.96
2018-05-01T20:44:41.424Z,46.95
2018-05-01T20:47:07.849Z,46.57
2018-05-01T20:49:34.284Z,46.77
2018-05-01T20:52:00.991Z,46.70
2018-05-01T20:54:27.389Z,46.85
2018-05-01T20:56:54.600Z,46.87
2018-05-01T20:59:21.032Z,47.42
2018-05-01T21:01:47.629Z,47.66
2018-05-01T21:04:14.121Z,47.47
2018-05-01T21:06:40.501Z,47.79
2018-05-01T21:09:06.963Z,47.97
2018-05-01T21:11:33.355Z,47.99
2018-05-01T21:14:00.636Z,47.75
2018-05-01T21:16:27.066Z,47.63
2018-05-01T21:18:53.451Z,47.71
2018-05-01T21:21:20.599Z,47.84
2018-05-01T21:23:46.996Z,49.71
2018-05-01T21:26:13.481Z,50.92
2018-05-01T21:28:40.659Z,51.11
2018-05-01T21:31:07.070Z,50.98
2018-05-01T21:33:34.259Z,50.74
2018-05-01T21:36:00.740Z,51.19
2018-05-01T21:38:27.893Z,50.86
2018-05-01T21:40:55.010Z,51.78
2018-05-01T21:43:21.450Z,52.60
2018-05-01T21:45:48.435Z,52.02
2018-05-01T21:48:16.934Z,53.30
2018-05-01T21:50:43.664Z,53.22
2018-05-01T21:53:10.527Z,53.24
2018-05-01T21:55:36.923Z,53.40
2018-05-01T21:58:04.153Z,52.95
2018-05-01T22:00:30.600Z,52.96
2018-05-01T22:02:57.736Z,52.52
2018-05-01T22:05:24.416Z,52.01
2018-05-01T22:07:50.932Z,53.03
2018-05-01T22:10:17.420Z,53.01
2018-05-01T22:12:43.865Z,53.70
2018-05-01T22:15:10.554Z,54.08
2018-05-01T22:17:36.937Z,53.86
2018-05-01T22:20:03.330Z,54.21
2018-05-01T22:22:29.800Z,53.91
2018-05-01T22:24:56.231Z,54.01
2018-05-01T22:27:22.921Z,53.91
2018-05-01T22:29:49.420Z,54.24
2018-05-01T22:32:15.839Z,54.47
2018-05-01T22:34:42.832Z,54.18
2018-05-01T22:37:10.134Z,53.95
2018-05-01T22:39:36.550Z,54.19
2018-05-01T22:42:02.991Z,55.07
2018-05-01T22:44:29.395Z,55.25
2018-05-01T22:46:57.368Z,56.02
2018-05-01T22:49:23.794Z,57.00
2018-05-01T22:51:50.332Z,57.03
2018-05-01T22:54:16.736Z,57.66
2018-05-01T22:56:43.953Z,57.45
2018-05-01T22:59:10.343Z,57.00
2018-05-01T23:01:36.788Z,57.37
2018-05-01T23:04:03.341Z,57.23
2018-05-01T23:06:30.019Z,57.31
2018-05-01T23:08:57.141Z,56.87
2018-05-01T23:11:23.674Z,57.06
2018-05-01T23:13:50.123Z,57.37
2018-05-01T23:16:16.511Z,57.41
2018-05-01T23:18:42.959Z,56.82
2018-05-01T23:21:09.667Z,57.86
2018-05-01T23:23:36.091Z,58.06
2018-05-01T23:26:03.237Z,58.08
2018-05-01T23:28:30.424Z,58.23
2018-05-01T23:30:56.966Z,58.23
2018-05-01T23:33:23.386Z,57.76
2018-05-01T23:35:49.796Z,57.13
2018-05-01T23:38:16.290Z,57.30
2018-05-01T23:40:42.808Z,57.86
2018-05-01T23:43:09.521Z,57.97
2018-05-01T23:45:36.177Z,57.48
2018-05-01T23:48:02.599Z,58.30
2018-05-01T23:50:29.327Z,59.06
2018-05-01T23:52:56.069Z,58.98
2018-05-01T23:55:22.648Z,58.80
2018-05-01T23:57:49.505Z,59.52
